Terminal Aerodrome Forecast
Issued by NWS

Home | Current Version | Previous Version | Text Only | Print | Product List | Glossary On
Versions: 1 2 3 4 5 6 7 8 9 10 11 12 13 14 15 16 17 18 19
000
FTUS43 KEAX 140500
TAFSTJ
TAF
KSTJ 140520Z 1406/1506 34018G28KT 5SM BR OVC012
      TEMPO 1406/1408 3SM -RASN BR OVC008
     FM141200 34020G30KT P6SM VCSH OVC015
     FM141400 34018G28KT P6SM BKN015
     FM141800 35016G25KT P6SM BKN035
     FM150000 36008KT P6SM SCT050=

USA.gov is the U.S. government's official web portal to all federal, state and local government web resources and services.